Time;durP1;ratioP1;P1;durP2;ratioP2;P2;SDS_P1;SDS_P2;PMS_P1;PMS_P2;Temp;Humidity;BMP_temperature;BMP_pressure;BME280_temperature;BME280_humidity;BME280_pressure;Samples;Min_cycle;Max_cycle;Signal;HPM_P1;HPM_P2
2022/07/19 00:00:24;;;;;;;7.13;5.90;;;30.20;1.00;;;;;;5155471;27;20027;-52
2022/07/19 00:02:50;;;;;;;6.40;5.78;;;30.20;1.00;;;;;;5155679;27;20019;-51
2022/07/19 00:05:16;;;;;;;6.13;5.57;;;30.20;1.00;;;;;;5152550;27;20031;-51
2022/07/19 00:07:42;;;;;;;6.43;5.30;;;30.10;1.00;;;;;;5141195;27;20391;-50
2022/07/19 00:10:09;;;;;;;8.18;5.68;;;30.10;1.00;;;;;;5154246;27;20023;-53
2022/07/19 00:12:36;;;;;;;9.15;4.93;;;30.10;1.00;;;;;;5155141;27;20490;-55
2022/07/19 00:15:03;;;;;;;8.25;5.03;;;30.00;1.00;;;;;;5154648;27;20030;-50
2022/07/19 00:17:28;;;;;;;5.03;4.30;;;29.90;1.00;;;;;;5154529;27;20139;-51
2022/07/19 00:19:54;;;;;;;7.53;4.28;;;29.90;1.00;;;;;;5152991;27;20407;-50
2022/07/19 00:22:19;;;;;;;5.18;4.28;;;29.90;1.00;;;;;;5154452;27;20030;-54
2022/07/19 00:24:45;;;;;;;8.77;5.50;;;29.80;1.00;;;;;;5154613;27;20462;-53
2022/07/19 00:27:11;;;;;;;6.43;5.25;;;30.00;1.00;;;;;;5154669;27;20037;-50
2022/07/19 00:29:37;;;;;;;5.70;4.60;;;30.10;1.00;;;;;;5153057;27;20109;-51
2022/07/19 00:32:03;;;;;;;6.20;4.43;;;30.10;1.00;;;;;;5155365;27;20039;-50
2022/07/19 00:34:29;;;;;;;10.40;4.45;;;30.10;1.00;;;;;;5148186;27;20027;-53
2022/07/19 00:36:54;;;;;;;5.07;4.63;;;30.20;1.00;;;;;;5155203;27;20081;-53
2022/07/19 00:39:20;;;;;;;6.15;4.32;;;30.00;1.00;;;;;;5152741;27;20453;-52
2022/07/19 00:41:46;;;;;;;7.15;4.60;;;29.90;1.00;;;;;;5150473;27;20027;-51
2022/07/19 00:44:12;;;;;;;5.85;4.60;;;30.00;1.00;;;;;;5154963;27;20027;-53
2022/07/19 00:46:37;;;;;;;7.82;4.22;;;30.00;1.00;;;;;;5154345;27;20030;-52
2022/07/19 00:49:04;;;;;;;8.38;4.47;;;29.80;1.00;;;;;;5154926;27;20097;-50
2022/07/19 00:51:37;;;;;;;8.93;4.20;;;29.90;1.00;;;;;;5143280;27;20019;-52
2022/07/19 00:54:03;;;;;;;6.00;4.63;;;29.70;1.00;;;;;;5152703;27;20037;-52
2022/07/19 00:56:32;;;;;;;5.38;4.18;;;29.80;1.00;;;;;;5144066;27;20027;-54
2022/07/19 00:59:01;;;;;;;3.92;3.60;;;29.80;1.00;;;;;;5150549;27;20019;-51
2022/07/19 01:01:27;;;;;;;9.75;4.15;;;30.00;1.00;;;;;;5154354;27;20027;-54
2022/07/19 01:03:55;;;;;;;6.95;4.22;;;30.00;1.00;;;;;;5154069;27;20031;-53
2022/07/19 01:06:21;;;;;;;4.97;3.70;;;30.00;1.00;;;;;;5150360;27;20023;-51
2022/07/19 01:08:47;;;;;;;4.07;3.58;;;30.10;1.00;;;;;;5148757;27;20026;-52
2022/07/19 01:11:13;;;;;;;5.15;3.72;;;30.00;1.00;;;;;;5153490;27;20439;-53
2022/07/19 01:13:38;;;;;;;6.22;3.55;;;30.20;1.00;;;;;;5147463;27;20023;-49
2022/07/19 01:16:04;;;;;;;4.60;3.72;;;30.10;1.00;;;;;;5153508;27;20123;-50
2022/07/19 01:18:30;;;;;;;5.20;4.07;;;30.20;1.00;;;;;;5148043;27;20125;-52
2022/07/19 01:20:57;;;;;;;3.72;3.42;;;30.20;1.00;;;;;;5142928;27;20026;-54
2022/07/19 01:23:23;;;;;;;4.18;3.38;;;30.40;1.00;;;;;;5141212;27;20092;-49
2022/07/19 01:25:49;;;;;;;6.85;3.80;;;30.40;1.00;;;;;;5144355;27;20019;-51
2022/07/19 01:28:15;;;;;;;8.93;4.03;;;30.50;1.00;;;;;;5148391;27;20046;-54
2022/07/19 01:30:40;;;;;;;4.50;3.50;;;30.40;1.00;;;;;;5144039;27;20058;-54
2022/07/19 01:33:06;;;;;;;5.13;3.72;;;30.20;1.00;;;;;;5154058;27;20035;-50
2022/07/19 01:35:32;;;;;;;3.97;3.58;;;30.20;1.00;;;;;;5153108;27;20019;-51
2022/07/19 01:37:58;;;;;;;3.28;3.00;;;30.20;1.00;;;;;;5153902;27;20121;-54
2022/07/19 01:40:24;;;;;;;3.35;3.15;;;30.30;1.00;;;;;;5152861;27;20018;-56
2022/07/19 01:42:50;;;;;;;3.08;2.83;;;30.40;1.00;;;;;;5153864;27;20027;-49
2022/07/19 01:45:16;;;;;;;3.60;3.30;;;30.10;1.00;;;;;;5149735;27;20030;-52
2022/07/19 01:47:42;;;;;;;6.50;3.40;;;30.30;1.00;;;;;;5138257;27;20400;-52
2022/07/19 01:50:10;;;;;;;5.43;3.63;;;30.20;1.00;;;;;;5152633;27;20127;-53
2022/07/19 01:52:35;;;;;;;7.47;3.20;;;30.20;1.00;;;;;;5142058;27;20473;-55
2022/07/19 01:55:01;;;;;;;3.78;3.42;;;30.40;1.00;;;;;;5146656;27;20019;-52
2022/07/19 01:57:28;;;;;;;5.38;2.97;;;30.40;1.00;;;;;;5146531;27;20034;-54
2022/07/19 01:59:54;;;;;;;6.47;3.45;;;30.30;1.00;;;;;;5153791;27;20015;-52
2022/07/19 02:02:20;;;;;;;4.22;3.20;;;30.20;1.00;;;;;;5147311;27;20039;-50
2022/07/19 02:04:45;;;;;;;4.45;3.08;;;30.20;1.00;;;;;;5152419;27;20418;-49
2022/07/19 02:07:11;;;;;;;3.75;3.30;;;30.20;1.00;;;;;;5147663;27;20110;-54
2022/07/19 02:09:37;;;;;;;3.20;2.90;;;30.10;1.00;;;;;;5153597;27;20015;-49
2022/07/19 02:12:02;;;;;;;3.58;2.70;;;30.20;1.00;;;;;;5148793;27;20027;-52
2022/07/19 02:14:28;;;;;;;5.25;2.97;;;30.50;1.00;;;;;;5143053;27;20118;-54
2022/07/19 02:16:54;;;;;;;5.15;3.40;;;30.60;1.00;;;;;;5150938;27;20027;-54
2022/07/19 02:19:21;;;;;;;3.42;3.00;;;30.60;1.00;;;;;;5152301;27;20054;-51
2022/07/19 02:21:46;;;;;;;4.63;3.42;;;30.50;1.00;;;;;;5152219;27;20483;-50
2022/07/19 02:24:12;;;;;;;3.50;3.20;;;30.20;1.00;;;;;;5150794;27;20026;-50
2022/07/19 02:26:38;;;;;;;3.65;3.35;;;30.40;1.00;;;;;;5152501;27;20038;-51
2022/07/19 02:29:04;;;;;;;4.10;3.17;;;30.20;1.00;;;;;;5152211;27;20075;-52
2022/07/19 02:31:29;;;;;;;4.97;3.85;;;30.20;1.00;;;;;;5150192;27;20019;-50
2022/07/19 02:33:55;;;;;;;6.18;3.75;;;30.10;1.00;;;;;;5153090;27;20122;-52
2022/07/19 02:36:20;;;;;;;7.97;3.65;;;30.20;1.00;;;;;;5151674;27;20049;-51
2022/07/19 02:38:47;;;;;;;6.95;3.95;;;30.20;1.00;;;;;;5151954;27;20038;-50
2022/07/19 02:41:13;;;;;;;6.70;3.55;;;30.10;1.00;;;;;;5151913;27;20358;-51
2022/07/19 02:43:40;;;;;;;5.47;3.83;;;30.10;1.00;;;;;;5144047;27;20031;-54
2022/07/19 02:46:05;;;;;;;5.13;4.55;;;30.10;1.00;;;;;;5138506;27;20027;-51
2022/07/19 02:48:31;;;;;;;6.18;4.13;;;30.00;1.00;;;;;;5147320;27;20041;-52
2022/07/19 02:50:57;;;;;;;4.35;3.80;;;30.00;1.00;;;;;;5151887;27;20029;-53
2022/07/19 02:53:23;;;;;;;4.10;3.70;;;30.10;1.00;;;;;;5139720;27;20062;-55
2022/07/19 02:55:49;;;;;;;5.03;4.28;;;30.10;1.00;;;;;;5156568;27;20440;-54
2022/07/19 02:58:15;;;;;;;6.57;3.13;;;29.90;1.00;;;;;;5149412;27;20023;-58
2022/07/19 03:00:40;;;;;;;4.88;4.38;;;30.10;1.00;;;;;;5156333;27;20033;-52
2022/07/19 03:05:50;;;;;;;5.72;3.53;;;30.00;1.00;;;;;;5149422;27;20025;-55
2022/07/19 03:08:17;;;;;;;4.90;3.63;;;30.10;1.00;;;;;;5144644;27;20122;-55
2022/07/19 03:10:42;;;;;;;3.92;3.45;;;30.20;1.00;;;;;;5143077;27;20077;-52
2022/07/19 03:13:08;;;;;;;5.65;3.97;;;30.20;1.00;;;;;;5138777;27;20027;-51
2022/07/19 03:15:35;;;;;;;4.90;4.20;;;30.00;1.00;;;;;;5152362;27;20291;-51
2022/07/19 03:18:01;;;;;;;6.38;3.80;;;30.00;1.00;;;;;;5155417;27;20029;-54
2022/07/19 03:20:27;;;;;;;5.65;4.50;;;29.70;1.00;;;;;;5156904;27;20019;-54
2022/07/19 03:22:52;;;;;;;4.18;3.88;;;30.00;1.00;;;;;;5154151;27;20049;-55
2022/07/19 03:25:18;;;;;;;5.95;3.83;;;30.10;1.00;;;;;;5156372;27;20019;-54
2022/07/19 03:27:43;;;;;;;8.25;4.13;;;30.20;1.00;;;;;;5155826;27;20344;-52
2022/07/19 03:30:09;;;;;;;5.07;4.13;;;30.00;1.00;;;;;;5154936;27;20438;-55
2022/07/19 03:32:35;;;;;;;5.15;3.88;;;30.00;1.00;;;;;;5155713;27;20037;-55
2022/07/19 03:35:00;;;;;;;6.13;3.85;;;30.10;1.00;;;;;;5141952;27;20430;-55
2022/07/19 03:37:26;;;;;;;4.97;4.10;;;30.30;1.00;;;;;;5154292;27;20129;-54
2022/07/19 03:39:52;;;;;;;6.25;4.10;;;30.40;1.00;;;;;;5149480;27;20027;-53
2022/07/19 03:42:17;;;;;;;5.57;3.90;;;30.40;1.00;;;;;;5155209;27;20031;-52
2022/07/19 03:44:43;;;;;;;6.88;4.80;;;30.40;1.00;;;;;;5155645;27;20027;-52
2022/07/19 03:47:08;;;;;;;6.13;4.20;;;30.40;1.00;;;;;;5155473;27;20025;-50
2022/07/19 03:49:34;;;;;;;7.13;4.13;;;30.50;1.00;;;;;;5156116;27;20345;-52
2022/07/19 03:52:00;;;;;;;6.90;4.55;;;30.40;1.00;;;;;;5155611;27;20023;-54
2022/07/19 03:54:25;;;;;;;4.55;4.15;;;30.40;1.00;;;;;;5155533;27;20429;-51
2022/07/19 03:56:51;;;;;;;5.00;4.60;;;30.40;1.00;;;;;;5155494;27;20027;-53
2022/07/19 03:59:17;;;;;;;8.85;4.50;;;30.40;1.00;;;;;;5155820;27;20060;-55
2022/07/19 04:01:43;;;;;;;6.82;4.70;;;30.50;1.00;;;;;;5154020;27;20065;-57
2022/07/19 04:04:08;;;;;;;6.60;4.50;;;30.40;1.00;;;;;;5154060;27;20111;-54
2022/07/19 04:06:34;;;;;;;6.60;5.00;;;30.20;1.00;;;;;;5153279;27;20514;-51
2022/07/19 04:08:59;;;;;;;5.78;4.50;;;30.10;1.00;;;;;;5150437;27;20137;-54
2022/07/19 04:11:25;;;;;;;5.35;4.72;;;30.20;1.00;;;;;;5153056;27;20430;-52
2022/07/19 04:13:51;;;;;;;8.40;5.03;;;30.40;1.00;;;;;;5155921;27;20457;-55
2022/07/19 04:16:16;;;;;;;7.13;4.90;;;30.20;1.00;;;;;;5154795;27;20071;-54
2022/07/19 04:18:42;;;;;;;6.20;5.00;;;29.90;1.00;;;;;;5155902;27;20387;-54
2022/07/19 04:21:08;;;;;;;5.70;4.78;;;29.90;1.00;;;;;;5154537;27;20030;-53
2022/07/19 04:23:34;;;;;;;5.20;4.60;;;29.90;1.00;;;;;;5151415;27;20153;-55
2022/07/19 04:26:00;;;;;;;6.20;4.97;;;29.70;1.00;;;;;;5134852;27;20042;-51
2022/07/19 04:28:25;;;;;;;7.95;5.45;;;29.60;1.00;;;;;;5154990;27;20046;-56
2022/07/19 04:30:51;;;;;;;6.97;5.60;;;29.70;1.00;;;;;;5154286;27;20393;-52
2022/07/19 04:33:18;;;;;;;6.32;5.30;;;29.70;1.00;;;;;;5154097;27;20102;-52
2022/07/19 04:35:44;;;;;;;7.43;5.28;;;29.70;1.00;;;;;;5155258;27;20051;-50
2022/07/19 04:38:10;;;;;;;10.27;5.30;;;29.60;1.00;;;;;;5154724;27;20077;-51
2022/07/19 04:40:36;;;;;;;7.45;5.28;;;29.70;1.00;;;;;;5155176;27;20455;-53
2022/07/19 04:43:01;;;;;;;6.18;4.95;;;29.70;1.00;;;;;;5152697;27;20064;-53
2022/07/19 04:45:27;;;;;;;6.00;5.40;;;29.70;1.00;;;;;;5153123;27;20358;-52
2022/07/19 04:47:53;;;;;;;6.85;5.60;;;29.50;1.00;;;;;;5154279;27;20464;-53
2022/07/19 04:50:19;;;;;;;5.95;5.43;;;29.60;1.00;;;;;;5154990;27;20080;-55
2022/07/19 04:52:45;;;;;;;5.97;5.40;;;29.60;1.00;;;;;;5154581;27;20145;-53
2022/07/19 04:55:11;;;;;;;8.48;5.40;;;29.60;1.00;;;;;;5155018;27;20126;-52
2022/07/19 04:57:36;;;;;;;6.50;5.38;;;29.70;1.00;;;;;;5153991;27;20038;-52
2022/07/19 05:00:09;;;;;;;8.00;5.30;;;29.50;1.00;;;;;;5154819;27;20390;-53
2022/07/19 05:02:35;;;;;;;5.97;4.80;;;29.70;1.00;;;;;;5153527;27;20072;-52
2022/07/19 05:05:01;;;;;;;7.55;5.47;;;29.70;1.00;;;;;;5152996;27;20434;-55
2022/07/19 05:07:27;;;;;;;6.38;5.00;;;29.70;1.00;;;;;;5143846;27;20109;-55
2022/07/19 05:09:52;;;;;;;5.00;4.70;;;29.80;1.00;;;;;;5148239;27;20034;-50
2022/07/19 05:12:18;;;;;;;5.93;4.97;;;29.90;1.00;;;;;;5149389;27;20109;-51
2022/07/19 05:14:44;;;;;;;10.68;5.80;;;29.80;1.00;;;;;;5144298;27;20349;-54
2022/07/19 05:17:09;;;;;;;8.00;5.20;;;29.80;1.00;;;;;;5149931;27;20487;-53
2022/07/19 05:19:35;;;;;;;7.18;5.25;;;29.90;1.00;;;;;;5142276;27;20018;-51
2022/07/19 05:22:01;;;;;;;6.72;5.50;;;29.90;1.00;;;;;;5152090;27;20496;-55
2022/07/19 05:24:26;;;;;;;6.55;4.93;;;29.80;1.00;;;;;;5154674;27;20526;-52
2022/07/19 05:26:52;;;;;;;5.72;5.10;;;29.80;1.00;;;;;;5152141;27;20099;-50
2022/07/19 05:29:18;;;;;;;7.22;4.90;;;29.80;1.00;;;;;;5154682;27;20068;-52
2022/07/19 05:31:43;;;;;;;6.53;5.55;;;29.90;1.00;;;;;;5151202;27;20042;-50
2022/07/19 05:34:09;;;;;;;8.93;5.93;;;29.90;1.00;;;;;;5154392;27;20026;-54
2022/07/19 05:36:35;;;;;;;7.70;5.93;;;29.90;1.00;;;;;;5152942;27;20046;-49
2022/07/19 05:39:00;;;;;;;7.40;5.65;;;30.00;1.00;;;;;;5154258;27;20023;-51
2022/07/19 05:41:26;;;;;;;6.78;5.88;;;29.90;1.00;;;;;;5142622;27;20114;-55
2022/07/19 05:43:52;;;;;;;6.65;5.93;;;29.90;1.00;;;;;;5153663;27;20109;-51
2022/07/19 05:46:18;;;;;;;5.90;5.30;;;29.90;1.00;;;;;;5153644;27;20022;-55
2022/07/19 05:48:44;;;;;;;7.25;5.72;;;29.80;1.00;;;;;;5152010;27;20091;-52
2022/07/19 05:51:10;;;;;;;7.30;5.60;;;29.80;1.00;;;;;;5154252;27;20421;-54
2022/07/19 05:53:36;;;;;;;7.38;5.82;;;29.80;1.00;;;;;;5151495;27;20048;-50
2022/07/19 05:56:03;;;;;;;7.97;5.20;;;29.90;1.00;;;;;;5154056;27;20134;-53
2022/07/19 05:58:28;;;;;;;7.28;5.18;;;30.10;1.00;;;;;;5152968;27;20078;-53
2022/07/19 06:03:38;;;;;;;5.68;5.05;;;30.20;1.00;;;;;;5151860;27;20571;-54
2022/07/19 06:06:04;;;;;;;6.75;5.00;;;30.10;1.00;;;;;;5153981;27;20109;-54
2022/07/19 06:08:30;;;;;;;9.20;4.68;;;30.10;1.00;;;;;;5152420;27;20101;-54
2022/07/19 06:10:55;;;;;;;6.93;4.38;;;30.10;1.00;;;;;;5153674;27;20460;-52
2022/07/19 06:13:22;;;;;;;7.45;3.97;;;30.20;1.00;;;;;;5152628;27;20027;-53
2022/07/19 06:15:49;;;;;;;7.05;5.35;;;30.20;1.00;;;;;;5153464;27;20019;-53
2022/07/19 06:18:15;;;;;;;7.68;4.75;;;30.30;1.00;;;;;;5151639;27;20399;-54
2022/07/19 06:20:41;;;;;;;4.45;4.07;;;30.30;1.00;;;;;;5153381;27;20184;-53
2022/07/19 06:23:06;;;;;;;4.88;4.40;;;30.10;1.00;;;;;;5152426;27;20164;-55
2022/07/19 06:25:32;;;;;;;7.70;4.68;;;30.10;1.00;;;;;;5153642;27;20136;-53
2022/07/19 06:27:58;;;;;;;7.03;4.97;;;30.10;1.00;;;;;;5143082;27;20027;-53
2022/07/19 06:30:23;;;;;;;9.18;4.70;;;30.20;1.00;;;;;;5140922;27;20054;-52
2022/07/19 06:32:49;;;;;;;5.47;4.40;;;30.20;1.00;;;;;;5145470;27;20058;-59
2022/07/19 06:35:14;;;;;;;7.30;4.70;;;30.20;1.00;;;;;;5139540;27;20019;-59
2022/07/19 06:37:40;;;;;;;4.90;4.47;;;30.10;1.00;;;;;;5150999;27;20102;-58
2022/07/19 06:40:06;;;;;;;6.97;4.45;;;30.10;1.00;;;;;;5153322;27;20037;-61
2022/07/19 06:42:32;;;;;;;5.22;4.38;;;30.20;1.00;;;;;;5149791;27;20039;-52
2022/07/19 06:45:01;;;;;;;10.85;4.60;;;30.10;1.00;;;;;;5152588;27;20324;-59
2022/07/19 06:47:27;;;;;;;6.68;5.15;;;30.10;1.00;;;;;;5138623;27;20011;-59
2022/07/19 06:49:53;;;;;;;6.18;4.43;;;30.20;1.00;;;;;;5152386;27;20083;-57
2022/07/19 06:52:19;;;;;;;5.88;4.20;;;30.20;1.00;;;;;;5151307;27;20468;-59
2022/07/19 06:54:44;;;;;;;4.68;4.28;;;30.20;1.00;;;;;;5151519;27;20362;-58
2022/07/19 06:57:10;;;;;;;4.50;4.15;;;30.20;1.00;;;;;;5150370;27;20038;-61
2022/07/19 06:59:36;;;;;;;5.68;4.10;;;30.10;1.00;;;;;;5151818;27;20023;-62
2022/07/19 07:02:03;;;;;;;8.60;4.68;;;30.20;1.00;;;;;;5150564;27;20075;-53
2022/07/19 07:04:29;;;;;;;7.70;5.00;;;30.30;1.00;;;;;;5150719;27;20547;-51
2022/07/19 07:06:54;;;;;;;6.78;4.38;;;30.30;1.00;;;;;;5152951;27;20109;-53
2022/07/19 07:09:20;;;;;;;8.88;4.18;;;30.30;1.00;;;;;;5150606;27;20449;-53
2022/07/19 07:11:46;;;;;;;11.82;4.95;;;30.40;1.00;;;;;;5152184;27;20488;-50
2022/07/19 07:14:11;;;;;;;6.18;4.93;;;30.30;1.00;;;;;;5142335;27;20035;-53
2022/07/19 07:16:37;;;;;;;5.07;4.57;;;30.30;1.00;;;;;;5151902;27;20026;-71
2022/07/19 07:19:02;;;;;;;7.85;4.35;;;30.30;1.00;;;;;;5150726;27;20049;-57
2022/07/19 07:21:29;;;;;;;8.23;4.93;;;30.30;1.00;;;;;;5152347;27;20023;-53
2022/07/19 07:23:55;;;;;;;11.35;4.80;;;30.40;1.00;;;;;;5151931;27;20050;-49
2022/07/19 07:26:21;;;;;;;4.82;4.28;;;30.40;1.00;;;;;;5152436;27;20027;-54
2022/07/19 07:28:46;;;;;;;7.25;4.80;;;30.40;1.00;;;;;;5145938;27;20468;-51
2022/07/19 07:31:12;;;;;;;6.55;4.63;;;30.40;1.00;;;;;;5146141;27;20026;-54
2022/07/19 07:33:37;;;;;;;6.05;4.28;;;30.40;1.00;;;;;;5151913;27;20026;-48
2022/07/19 07:36:03;;;;;;;5.45;4.85;;;30.40;1.00;;;;;;5131601;27;20039;-48
2022/07/19 07:38:29;;;;;;;7.88;5.18;;;30.50;1.00;;;;;;5145756;27;20452;-48
2022/07/19 07:40:56;;;;;;;4.85;4.35;;;30.50;1.00;;;;;;5141853;27;20087;-53
2022/07/19 07:43:21;;;;;;;5.20;4.30;;;30.60;1.00;;;;;;5155444;27;20046;-51
2022/07/19 07:45:47;;;;;;;7.88;5.05;;;30.70;1.00;;;;;;5156449;27;20019;-49
2022/07/19 07:48:13;;;;;;;5.38;4.38;;;30.90;1.00;;;;;;5153272;27;20027;-48
2022/07/19 07:50:38;;;;;;;4.43;4.03;;;31.30;1.00;;;;;;5156000;27;20059;-51
2022/07/19 07:53:04;;;;;;;4.95;4.43;;;31.10;1.00;;;;;;5155375;27;20113;-51
2022/07/19 07:55:29;;;;;;;6.10;4.15;;;31.10;1.00;;;;;;5144983;27;20027;-53
2022/07/19 07:57:55;;;;;;;7.03;4.18;;;31.10;1.00;;;;;;5154500;27;20027;-51
2022/07/19 08:00:21;;;;;;;8.45;6.30;;;31.10;1.00;;;;;;5141399;27;20027;-49
2022/07/19 08:02:49;;;;;;;5.53;4.55;;;31.30;1.00;;;;;;5155974;27;20110;-51
2022/07/19 08:05:15;;;;;;;4.70;4.30;;;31.30;1.00;;;;;;5136519;27;20034;-48
2022/07/19 08:07:40;;;;;;;5.95;3.95;;;31.50;1.00;;;;;;5147724;27;20034;-50
2022/07/19 08:10:08;;;;;;;7.72;4.28;;;31.70;1.00;;;;;;5148459;27;20019;-49
2022/07/19 08:12:34;;;;;;;6.07;4.32;;;31.80;1.00;;;;;;5141351;27;20026;-48
2022/07/19 08:14:59;;;;;;;5.03;4.55;;;31.80;1.00;;;;;;5153315;27;20023;-51
2022/07/19 08:17:25;;;;;;;6.85;4.82;;;31.90;1.00;;;;;;5155341;27;20120;-51
2022/07/19 08:19:51;;;;;;;5.53;5.10;;;32.30;1.00;;;;;;5152724;27;20022;-49
2022/07/19 08:22:18;;;;;;;6.88;5.15;;;32.20;1.00;;;;;;5155116;27;20458;-49
2022/07/19 08:24:44;;;;;;;5.25;4.78;;;32.00;1.00;;;;;;5150726;27;20031;-53
2022/07/19 08:27:10;;;;;;;6.88;5.30;;;31.90;1.00;;;;;;5151660;27;20031;-49
2022/07/19 08:29:36;;;;;;;7.78;4.97;;;31.90;1.00;;;;;;5147390;27;20025;-51
2022/07/19 08:32:02;;;;;;;6.32;5.30;;;31.80;1.00;;;;;;5154069;27;20045;-51
2022/07/19 08:34:27;;;;;;;5.25;4.70;;;31.60;1.00;;;;;;5145324;27;20145;-50
2022/07/19 08:36:53;;;;;;;5.28;4.50;;;31.70;1.00;;;;;;5146261;27;20054;-52
2022/07/19 08:39:19;;;;;;;7.97;4.60;;;31.70;1.00;;;;;;5138507;27;20469;-54
2022/07/19 08:41:46;;;;;;;7.15;4.90;;;31.80;1.00;;;;;;5143420;27;20467;-53
2022/07/19 08:44:12;;;;;;;5.10;4.70;;;32.00;1.00;;;;;;5149547;27;20478;-50
2022/07/19 08:46:41;;;;;;;6.63;5.57;;;31.80;1.00;;;;;;5135775;27;20031;-50
2022/07/19 08:49:08;;;;;;;5.07;4.60;;;31.80;1.00;;;;;;5153486;27;20035;-54
2022/07/19 08:51:34;;;;;;;6.63;4.57;;;31.80;1.00;;;;;;5149153;27;20113;-52
2022/07/19 08:54:01;;;;;;;6.05;5.00;;;31.70;1.00;;;;;;5153846;27;20031;-51
2022/07/19 08:59:11;;;;;;;5.80;4.80;;;32.00;1.00;;;;;;5153766;27;20069;-52
2022/07/19 09:01:37;;;;;;;5.90;5.13;;;31.90;1.00;;;;;;5153467;27;20063;-51
2022/07/19 09:04:06;;;;;;;6.15;4.68;;;32.00;1.00;;;;;;5152733;27;20130;-53
2022/07/19 09:06:40;;;;;;;5.32;4.57;;;31.90;1.00;;;;;;5151583;27;20019;-50
2022/07/19 09:09:06;;;;;;;6.93;5.15;;;32.00;1.00;;;;;;5152094;27;20247;-48
2022/07/19 09:11:37;;;;;;;10.98;5.40;;;32.00;1.00;;;;;;5152367;27;20110;-52
2022/07/19 09:14:10;;;;;;;5.05;4.65;;;32.20;1.00;;;;;;5153075;27;20035;-50
2022/07/19 09:16:49;;;;;;;4.75;4.32;;;32.20;1.00;;;;;;5153623;27;20050;-54
2022/07/19 09:19:15;;;;;;;4.70;4.30;;;32.20;1.00;;;;;;5152751;27;20060;-54
2022/07/19 09:21:54;;;;;;;6.00;4.75;;;32.30;1.00;;;;;;5153868;27;20023;-50
2022/07/19 09:24:20;;;;;;;4.53;4.20;;;32.50;1.00;;;;;;5152809;27;20043;-49
2022/07/19 09:27:01;;;;;;;5.30;4.82;;;32.40;1.00;;;;;;5153231;27;20413;-50
2022/07/19 09:29:29;;;;;;;5.15;4.00;;;32.60;1.00;;;;;;5152187;27;20038;-51
2022/07/19 09:32:03;;;;;;;5.88;4.43;;;32.40;1.00;;;;;;5153721;27;20072;-50
2022/07/19 09:34:31;;;;;;;5.15;4.60;;;32.40;1.00;;;;;;5143047;27;20030;-51
2022/07/19 09:37:16;;;;;;;5.38;4.63;;;32.40;1.00;;;;;;5152239;27;20043;-51
2022/07/19 09:39:46;;;;;;;6.28;4.72;;;32.40;1.00;;;;;;5152298;27;20369;-52
2022/07/19 09:42:18;;;;;;;5.28;4.78;;;32.70;1.00;;;;;;5153053;27;20015;-53
2022/07/19 09:44:45;;;;;;;8.30;4.63;;;32.50;1.00;;;;;;5150892;27;20045;-48
2022/07/19 09:47:10;;;;;;;5.43;4.55;;;32.50;1.00;;;;;;5152875;27;20030;-51
2022/07/19 09:49:36;;;;;;;25.65;6.88;;;32.60;1.00;;;;;;5149872;27;20137;-54
2022/07/19 09:52:02;;;;;;;7.10;5.30;;;32.30;1.00;;;;;;5146252;27;20027;-51
2022/07/19 09:54:31;;;;;;;5.85;5.05;;;32.50;1.00;;;;;;5145477;27;20035;-53
2022/07/19 09:56:58;;;;;;;6.78;4.47;;;32.70;1.00;;;;;;5139762;27;20031;-53
2022/07/19 09:59:25;;;;;;;5.07;4.57;;;32.70;1.00;;;;;;5147040;27;20038;-51
2022/07/19 10:01:55;;;;;;;4.22;3.83;;;32.80;1.00;;;;;;5147628;27;20050;-49
2022/07/19 10:04:24;;;;;;;5.68;4.18;;;32.70;1.00;;;;;;5149891;27;20495;-49
2022/07/19 10:06:52;;;;;;;5.80;4.75;;;32.70;1.00;;;;;;5153166;27;20417;-50
2022/07/19 10:09:19;;;;;;;4.40;4.10;;;32.60;1.00;;;;;;5149252;27;20072;-51
2022/07/19 10:11:52;;;;;;;5.25;4.75;;;32.60;1.00;;;;;;5151657;27;20416;-50
2022/07/19 10:14:18;;;;;;;4.90;4.47;;;32.70;1.00;;;;;;5143774;27;20038;-53
2022/07/19 10:16:48;;;;;;;4.78;4.40;;;32.70;1.00;;;;;;5152332;27;20437;-49
2022/07/19 10:19:20;;;;;;;5.03;4.63;;;32.60;1.00;;;;;;5143574;27;20089;-53
2022/07/19 10:21:47;;;;;;;6.75;4.07;;;32.80;1.00;;;;;;5150421;27;20357;-53
2022/07/19 10:24:13;;;;;;;4.97;4.57;;;33.10;1.00;;;;;;5145806;27;20043;-55
2022/07/19 10:26:43;;;;;;;7.07;4.93;;;32.90;1.00;;;;;;5152157;27;20087;-53
2022/07/19 10:29:31;;;;;;;4.43;4.05;;;33.00;1.00;;;;;;5151422;27;20030;-52
2022/07/19 10:32:12;;;;;;;4.50;4.10;;;33.10;1.00;;;;;;5137871;27;20390;-54
2022/07/19 10:34:38;;;;;;;4.55;4.20;;;33.20;1.00;;;;;;5144809;27;20493;-52
2022/07/19 10:37:04;;;;;;;4.65;4.13;;;33.20;1.00;;;;;;5145759;27;20043;-53
2022/07/19 10:39:34;;;;;;;4.85;4.35;;;33.20;1.00;;;;;;5142981;27;20360;-50
2022/07/19 10:42:14;;;;;;;4.70;4.15;;;33.20;1.00;;;;;;5147583;27;20058;-50
2022/07/19 10:44:55;;;;;;;5.30;3.97;;;33.00;1.00;;;;;;5146066;27;20027;-52
2022/07/19 10:47:22;;;;;;;4.43;4.13;;;33.20;1.00;;;;;;5152337;27;20031;-49
2022/07/19 10:49:48;;;;;;;4.75;4.10;;;33.30;1.00;;;;;;5150085;27;20027;-49
2022/07/19 10:52:29;;;;;;;4.80;4.38;;;33.70;1.00;;;;;;5152045;27;20023;-49
2022/07/19 10:55:17;;;;;;;4.38;4.07;;;33.50;1.00;;;;;;5151514;27;20168;-51
2022/07/19 10:57:45;;;;;;;4.90;4.00;;;33.80;1.00;;;;;;5151330;27;20034;-51
2022/07/19 11:00:19;;;;;;;5.93;4.15;;;33.90;1.00;;;;;;5150822;27;20046;-53
2022/07/19 11:02:46;;;;;;;4.82;4.40;;;33.90;1.00;;;;;;5151213;27;20053;-53
2022/07/19 11:05:26;;;;;;;8.57;4.50;;;34.00;1.00;;;;;;5148844;27;20022;-52
2022/07/19 11:07:53;;;;;;;4.88;4.38;;;34.00;1.00;;;;;;5142561;27;20035;-53
2022/07/19 11:10:37;;;;;;;4.47;4.07;;;34.00;1.00;;;;;;5144203;27;22267;-50
2022/07/19 11:13:02;;;;;;;3.53;3.28;;;34.30;1.00;;;;;;5147044;27;20039;-54
2022/07/19 11:15:28;;;;;;;4.60;4.18;;;34.40;1.00;;;;;;5154933;27;20026;-53
2022/07/19 11:17:58;;;;;;;7.45;4.60;;;34.40;1.00;;;;;;5154800;27;20053;-53
2022/07/19 11:20:26;;;;;;;5.10;4.60;;;34.40;1.00;;;;;;5155176;27;20079;-49
2022/07/19 11:22:52;;;;;;;6.38;4.38;;;34.60;1.00;;;;;;5154537;27;20054;-50
2022/07/19 11:25:28;;;;;;;4.35;4.05;;;34.40;1.00;;;;;;5155414;27;20095;-53
2022/07/19 11:27:53;;;;;;;5.32;4.68;;;34.60;1.00;;;;;;5155617;27;20041;-52
2022/07/19 11:30:22;;;;;;;5.38;4.97;;;34.60;1.00;;;;;;5154805;27;20027;-49
2022/07/19 11:33:02;;;;;;;5.97;5.13;;;34.70;1.00;;;;;;5155337;27;20039;-48
2022/07/19 11:35:28;;;;;;;5.53;5.03;;;34.90;1.00;;;;;;5154370;27;20019;-53
2022/07/19 11:37:55;;;;;;;5.75;4.68;;;35.50;1.00;;;;;;5154854;27;20058;-52
2022/07/19 11:40:22;;;;;;;5.47;4.97;;;36.10;1.00;;;;;;5153560;27;20137;-52
2022/07/19 11:42:49;;;;;;;5.65;5.15;;;36.30;1.00;;;;;;5155541;27;20484;-54
2022/07/19 11:45:20;;;;;;;5.10;4.63;;;36.10;1.00;;;;;;5154078;27;20022;-52
2022/07/19 11:47:49;;;;;;;6.05;5.00;;;36.50;1.00;;;;;;5155939;27;20083;-53
2022/07/19 11:50:17;;;;;;;5.20;4.78;;;37.70;1.00;;;;;;5154698;27;20050;-54
2022/07/19 11:52:56;;;;;;;5.95;5.45;;;39.70;1.00;;;;;;5154556;27;20045;-52
2022/07/19 11:55:25;;;;;;;5.95;5.43;;;40.90;1.00;;;;;;5154528;27;20395;-56
2022/07/19 11:57:52;;;;;;;6.53;5.63;;;41.50;1.00;;;;;;5155481;27;20023;-55
2022/07/19 12:00:19;;;;;;;6.68;6.28;;;41.00;1.00;;;;;;5139474;27;20487;-51
2022/07/19 12:03:08;;;;;;;6.55;6.15;;;40.10;1.00;;;;;;5153172;27;20046;-53
2022/07/19 12:05:37;;;;;;;6.75;6.20;;;40.50;1.00;;;;;;5152160;27;20041;-50
2022/07/19 12:08:06;;;;;;;6.53;6.00;;;41.90;1.00;;;;;;5154057;27;20134;-54
2022/07/19 12:10:43;;;;;;;6.00;5.60;;;43.20;1.00;;;;;;5150817;27;20043;-49
2022/07/19 12:13:11;;;;;;;6.35;5.85;;;43.40;1.00;;;;;;5155109;27;20029;-54
2022/07/19 12:15:44;;;;;;;7.50;5.95;;;42.10;1.00;;;;;;5153805;27;20065;-54
2022/07/19 12:18:10;;;;;;;6.80;6.22;;;41.50;1.00;;;;;;5154957;27;20037;-54
2022/07/19 12:20:35;;;;;;;6.70;6.10;;;41.10;1.00;;;;;;5152959;27;20058;-54
2022/07/19 12:23:22;;;;;;;6.65;6.15;;;40.00;1.00;;;;;;5155314;27;20038;-50
2022/07/19 12:25:49;;;;;;;7.28;6.40;;;39.20;1.00;;;;;;5151211;27;20113;-52
2022/07/19 12:28:15;;;;;;;6.68;6.18;;;38.40;1.00;;;;;;5153387;27;20038;-53
2022/07/19 12:30:40;;;;;;;7.05;6.35;;;38.10;1.00;;;;;;5153802;27;20027;-51
2022/07/19 12:33:11;;;;;;;6.68;6.18;;;38.60;1.00;;;;;;5154568;27;20101;-51
2022/07/19 12:35:45;;;;;;;8.57;7.72;;;38.00;1.00;;;;;;5153110;27;20039;-50
2022/07/19 12:38:11;;;;;;;8.13;7.40;;;37.40;1.00;;;;;;5152152;27;20038;-53
2022/07/19 12:40:38;;;;;;;6.63;6.15;;;37.00;1.00;;;;;;5153829;27;20503;-55
2022/07/19 12:43:06;;;;;;;7.30;5.95;;;36.70;1.00;;;;;;5153884;27;20456;-52
2022/07/19 12:45:43;;;;;;;5.82;5.32;;;36.50;1.00;;;;;;5153753;27;20010;-53
2022/07/19 12:48:12;;;;;;;6.78;6.10;;;36.50;1.00;;;;;;5153768;27;20131;-52
2022/07/19 12:50:43;;;;;;;8.95;6.55;;;36.30;1.00;;;;;;5153204;27;20107;-51
2022/07/19 12:53:11;;;;;;;6.78;6.28;;;36.30;1.00;;;;;;5148724;27;20038;-54
2022/07/19 12:55:38;;;;;;;5.93;5.43;;;36.20;1.00;;;;;;5154509;27;20019;-54
2022/07/19 12:58:05;;;;;;;7.20;6.50;;;36.10;1.00;;;;;;5142113;27;20038;-51
2022/07/19 13:00:32;;;;;;;6.47;5.85;;;36.10;1.00;;;;;;5152875;27;20035;-53
2022/07/19 13:02:59;;;;;;;6.10;5.60;;;36.20;1.00;;;;;;5148179;27;20459;-59
2022/07/19 13:05:26;;;;;;;6.15;5.65;;;36.00;1.00;;;;;;5146181;27;20027;-58